createdAt,value
2022-09-14T00:00:00.281Z,23.7
2022-09-14T00:01:23.706Z,23.7
2022-09-14T00:02:00.474Z,23.7
2022-09-14T00:03:00.447Z,23.7
2022-09-14T00:04:00.455Z,23.7
2022-09-14T00:05:00.303Z,23.8
2022-09-14T00:06:00.306Z,23.8
2022-09-14T00:07:00.492Z,23.8
2022-09-14T00:08:00.393Z,23.8
2022-09-14T00:09:00.432Z,23.7
2022-09-14T00:10:00.306Z,23.7
2022-09-14T00:11:00.315Z,23.7
2022-09-14T00:12:00.312Z,23.6
2022-09-14T00:13:00.448Z,23.6
2022-09-14T00:14:00.303Z,23.6
2022-09-14T00:15:00.300Z,23.5
2022-09-14T00:16:00.300Z,23.5
2022-09-14T00:17:00.378Z,23.6
2022-09-14T00:18:00.300Z,23.5
2022-09-14T00:19:00.464Z,23.5
2022-09-14T00:20:00.321Z,23.5
2022-09-14T00:21:00.315Z,23.5
2022-09-14T00:22:00.292Z,23.5
2022-09-14T00:23:00.346Z,23.4
2022-09-14T00:24:00.412Z,23.3
2022-09-14T00:25:00.403Z,23.3
2022-09-14T00:26:00.308Z,23.2
2022-09-14T00:27:00.320Z,23.2
2022-09-14T00:28:00.298Z,23.2
2022-09-14T00:29:00.305Z,23.1
2022-09-14T00:30:00.311Z,23.1
2022-09-14T00:31:00.489Z,23.1
2022-09-14T00:32:00.406Z,23.2
2022-09-14T00:33:00.416Z,23.1
2022-09-14T00:34:00.314Z,23.1
2022-09-14T00:35:00.309Z,23.1
2022-09-14T00:36:00.302Z,23.1
2022-09-14T00:37:00.788Z,23.1
2022-09-14T00:38:00.314Z,23.1
2022-09-14T00:39:00.389Z,23.1
2022-09-14T00:40:00.432Z,23.1
2022-09-14T00:41:00.294Z,23.1
2022-09-14T00:42:00.318Z,23.1
2022-09-14T00:43:00.437Z,23.1
2022-09-14T00:44:00.303Z,23.1
2022-09-14T00:45:00.324Z,23.1
2022-09-14T00:46:00.431Z,23.1
2022-09-14T00:47:00.346Z,23.1
2022-09-14T00:48:00.374Z,23.1
2022-09-14T00:49:00.454Z,23.1
2022-09-14T00:50:00.306Z,23.1
2022-09-14T00:51:00.317Z,23.1
2022-09-14T00:52:00.287Z,23.1
2022-09-14T00:53:00.337Z,23.1
2022-09-14T00:54:00.582Z,23.1
2022-09-14T00:55:00.422Z,23.1
2022-09-14T00:56:00.304Z,23.1
2022-09-14T00:57:00.383Z,23.1
2022-09-14T00:58:00.290Z,23.1
2022-09-14T00:59:00.333Z,23.2
2022-09-14T01:00:00.361Z,23.2
2022-09-14T01:01:00.602Z,23.2
2022-09-14T01:02:00.373Z,23.2
2022-09-14T01:03:00.372Z,23.3
2022-09-14T01:04:00.333Z,23.3
2022-09-14T01:05:00.316Z,23.3
2022-09-14T01:06:00.299Z,23.3
2022-09-14T01:07:00.450Z,23.2
2022-09-14T01:08:00.344Z,23.2
2022-09-14T01:09:00.365Z,23.2
2022-09-14T01:10:00.326Z,23.2
2022-09-14T01:11:00.315Z,23.2
2022-09-14T01:12:00.305Z,23.2
2022-09-14T01:13:00.444Z,23.2
2022-09-14T01:14:00.301Z,23.2
2022-09-14T01:15:00.300Z,23.3
2022-09-14T01:16:00.425Z,23.3
2022-09-14T01:17:00.326Z,23.3
2022-09-14T01:18:00.295Z,23.3
2022-09-14T01:19:00.425Z,23.3
2022-09-14T01:20:00.325Z,23.3
2022-09-14T01:21:00.321Z,23.2
2022-09-14T01:22:00.308Z,23.2
2022-09-14T01:23:00.331Z,23.2
2022-09-14T01:24:00.437Z,23.2
2022-09-14T01:25:00.413Z,23.2
2022-09-14T01:26:00.309Z,23.1
2022-09-14T01:27:00.302Z,23.1
2022-09-14T01:28:00.298Z,23.1
2022-09-14T01:29:00.329Z,23.1
2022-09-14T01:30:00.303Z,23.0
2022-09-14T01:31:00.507Z,23.0
2022-09-14T01:32:00.344Z,23.0
2022-09-14T01:33:00.313Z,23.0
2022-09-14T01:34:00.286Z,23.0
2022-09-14T01:35:00.331Z,23.0
2022-09-14T01:36:00.313Z,23.0
2022-09-14T01:37:00.626Z,22.9
2022-09-14T01:38:00.302Z,22.9
2022-09-14T01:39:00.307Z,22.9
2022-09-14T01:40:00.426Z,22.9
2022-09-14T01:41:00.281Z,22.9
2022-09-14T01:42:00.302Z,22.9
2022-09-14T01:43:00.462Z,22.9
2022-09-14T01:44:00.318Z,22.9
2022-09-14T01:45:00.281Z,22.9
2022-09-14T01:46:00.401Z,22.8
2022-09-14T01:47:00.297Z,22.8
2022-09-14T01:48:00.390Z,22.8
2022-09-14T01:49:00.499Z,22.7
2022-09-14T01:50:00.311Z,22.7
2022-09-14T01:51:00.345Z,22.7
2022-09-14T01:52:00.286Z,22.6
2022-09-14T01:53:00.302Z,22.6
2022-09-14T01:54:00.357Z,22.6
2022-09-14T01:55:00.538Z,22.5
2022-09-14T01:56:00.295Z,22.6
2022-09-14T01:57:00.317Z,22.5
2022-09-14T01:58:00.299Z,22.5
2022-09-14T01:59:00.297Z,22.5
2022-09-14T02:00:00.313Z,22.6
2022-09-14T02:01:00.538Z,22.6
2022-09-14T02:02:00.330Z,22.6
2022-09-14T02:03:00.347Z,22.6
2022-09-14T02:04:00.354Z,22.6
2022-09-14T02:05:00.338Z,22.6
2022-09-14T02:06:00.379Z,22.6
2022-09-14T02:07:00.470Z,22.6
2022-09-14T02:08:00.336Z,22.6
2022-09-14T02:09:00.358Z,22.6
2022-09-14T02:10:00.445Z,22.6
2022-09-14T02:11:00.344Z,22.5
2022-09-14T02:12:00.367Z,22.5
2022-09-14T02:13:00.492Z,22.5
2022-09-14T02:14:00.307Z,22.4
2022-09-14T02:15:00.294Z,22.4
2022-09-14T02:16:00.361Z,22.4
2022-09-14T02:17:00.287Z,22.3
2022-09-14T02:18:00.291Z,22.3
2022-09-14T02:19:00.429Z,22.3
2022-09-14T02:20:00.300Z,22.3
2022-09-14T02:21:00.289Z,22.2
2022-09-14T02:22:00.274Z,22.2
2022-09-14T02:23:00.320Z,22.2
2022-09-14T02:24:00.291Z,22.2
2022-09-14T02:25:00.518Z,22.1
2022-09-14T02:26:00.305Z,22.1
2022-09-14T02:27:00.283Z,22.1
2022-09-14T02:28:00.305Z,22.0
2022-09-14T02:29:00.311Z,22.0
2022-09-14T02:30:00.311Z,22.0
2022-09-14T02:31:00.606Z,22.0
2022-09-14T02:32:00.337Z,22.0
2022-09-14T02:33:00.331Z,22.0
2022-09-14T02:34:00.367Z,21.9
2022-09-14T02:35:00.386Z,21.9
2022-09-14T02:36:00.437Z,21.9
2022-09-14T02:37:00.484Z,21.9
2022-09-14T02:38:00.295Z,21.9
2022-09-14T02:39:00.326Z,21.9
2022-09-14T02:40:00.518Z,21.9
2022-09-14T02:41:00.322Z,21.9
2022-09-14T02:42:00.282Z,21.9
2022-09-14T02:43:00.436Z,21.9
2022-09-14T02:44:00.310Z,22.0
2022-09-14T02:45:00.289Z,22.0
2022-09-14T02:46:00.301Z,22.1
2022-09-14T02:47:00.352Z,22.1
2022-09-14T02:48:00.307Z,22.0
2022-09-14T02:49:00.520Z,21.9
2022-09-14T02:50:00.291Z,21.9
2022-09-14T02:51:00.313Z,21.8
2022-09-14T02:52:00.291Z,21.8
2022-09-14T02:53:00.294Z,21.8
2022-09-14T02:54:00.324Z,21.8
2022-09-14T02:55:00.605Z,21.8
2022-09-14T02:56:00.419Z,21.7
2022-09-14T02:57:00.325Z,21.7
2022-09-14T02:58:00.356Z,21.7
2022-09-14T02:59:00.290Z,21.7
2022-09-14T03:00:00.350Z,21.7
2022-09-14T03:01:00.593Z,21.7
2022-09-14T03:02:00.435Z,21.7
2022-09-14T03:03:00.323Z,21.7
2022-09-14T03:04:00.296Z,21.7
2022-09-14T03:05:00.291Z,21.8
2022-09-14T03:06:00.287Z,21.8
2022-09-14T03:07:00.562Z,21.8
2022-09-14T03:08:00.297Z,21.8
2022-09-14T03:09:00.318Z,21.8
2022-09-14T03:10:00.303Z,21.8
2022-09-14T03:11:00.469Z,21.8
2022-09-14T03:12:00.315Z,21.8
2022-09-14T03:13:00.417Z,21.8
2022-09-14T03:14:00.298Z,21.8
2022-09-14T03:15:00.292Z,21.8
2022-09-14T03:16:00.407Z,21.8
2022-09-14T03:17:00.337Z,21.8
2022-09-14T03:18:00.329Z,21.8
2022-09-14T03:19:00.478Z,21.8
2022-09-14T03:20:00.299Z,21.8
2022-09-14T03:21:00.314Z,21.8
2022-09-14T03:22:00.338Z,21.8
2022-09-14T03:23:00.344Z,21.8
2022-09-14T03:24:00.352Z,21.8
2022-09-14T03:25:00.566Z,21.7
2022-09-14T03:26:00.582Z,21.7
2022-09-14T03:27:00.286Z,21.7
2022-09-14T03:28:00.318Z,21.7
2022-09-14T03:29:00.296Z,21.7
2022-09-14T03:30:00.320Z,21.7
2022-09-14T03:31:00.494Z,21.7
2022-09-14T03:32:00.282Z,21.7
2022-09-14T03:33:00.298Z,21.8
2022-09-14T03:34:00.312Z,21.8
2022-09-14T03:35:00.299Z,21.7
2022-09-14T03:36:00.322Z,21.7
2022-09-14T03:37:00.475Z,21.7
2022-09-14T03:38:00.335Z,21.7
2022-09-14T03:39:00.374Z,21.7
2022-09-14T03:40:00.400Z,21.7
2022-09-14T03:41:00.489Z,21.7
2022-09-14T03:42:00.304Z,21.8
2022-09-14T03:43:00.382Z,21.8
2022-09-14T03:44:00.313Z,22.0
2022-09-14T03:45:00.315Z,22.0
2022-09-14T03:46:00.302Z,22.0
2022-09-14T03:47:00.409Z,22.1
2022-09-14T03:48:00.303Z,22.1
2022-09-14T03:49:00.547Z,22.2
2022-09-14T03:50:00.294Z,22.2
2022-09-14T03:51:00.315Z,22.3
2022-09-14T03:52:00.312Z,22.4
2022-09-14T03:53:00.281Z,22.5
2022-09-14T03:54:00.305Z,22.5
2022-09-14T03:55:00.590Z,22.5
2022-09-14T03:56:00.364Z,22.5
2022-09-14T03:57:00.425Z,22.5
2022-09-14T03:58:00.370Z,22.5
2022-09-14T03:59:00.305Z,22.5
2022-09-14T04:00:00.371Z,22.6
2022-09-14T04:01:00.600Z,22.7
2022-09-14T04:02:00.394Z,22.8
2022-09-14T04:03:00.403Z,22.8
2022-09-14T04:04:00.290Z,22.8
2022-09-14T04:05:00.321Z,22.9
2022-09-14T04:06:00.297Z,22.9
2022-09-14T04:07:00.448Z,22.9
2022-09-14T04:08:00.296Z,23.0
2022-09-14T04:09:00.291Z,23.1
2022-09-14T04:10:00.293Z,23.1
2022-09-14T04:11:00.501Z,23.1
2022-09-14T04:12:00.439Z,23.1
2022-09-14T04:13:00.423Z,23.1
2022-09-14T04:14:00.365Z,23.0
2022-09-14T04:15:00.312Z,23.1
2022-09-14T04:16:00.382Z,23.0
2022-09-14T04:17:00.295Z,23.0
2022-09-14T04:18:00.323Z,23.1
2022-09-14T04:19:00.582Z,23.0
2022-09-14T04:20:00.288Z,23.0
2022-09-14T04:21:02.459Z,23.0
2022-09-14T04:22:00.303Z,22.9
2022-09-14T04:23:00.301Z,22.8
2022-09-14T04:24:15.940Z,22.7
2022-09-14T04:25:00.435Z,22.6
2022-09-14T04:26:00.291Z,22.5
2022-09-14T04:27:00.394Z,22.5
2022-09-14T04:28:19.118Z,22.5
2022-09-14T04:29:00.314Z,22.5
2022-09-14T04:30:00.298Z,22.3
2022-09-14T04:31:00.512Z,22.3
2022-09-14T04:32:00.295Z,22.2
2022-09-14T04:33:00.336Z,22.2
2022-09-14T04:34:00.360Z,22.2
2022-09-14T04:35:00.302Z,22.3
2022-09-14T04:36:00.305Z,22.3
2022-09-14T04:37:00.449Z,22.4
2022-09-14T04:38:00.377Z,22.3
2022-09-14T04:39:00.370Z,22.3
2022-09-14T04:40:00.433Z,22.2
2022-09-14T04:41:00.404Z,22.2
2022-09-14T04:42:00.298Z,22.3
2022-09-14T04:43:00.474Z,22.3
2022-09-14T04:44:00.394Z,22.3
2022-09-14T04:45:00.308Z,22.3
2022-09-14T04:46:00.365Z,22.4
2022-09-14T04:47:00.335Z,22.5
2022-09-14T04:48:00.293Z,22.6
2022-09-14T04:49:00.576Z,22.6
2022-09-14T04:50:00.310Z,22.6
2022-09-14T04:51:00.317Z,22.6
2022-09-14T04:52:00.297Z,22.6
2022-09-14T04:53:00.310Z,22.7
2022-09-14T04:54:00.314Z,22.8
2022-09-14T04:55:00.504Z,22.9
2022-09-14T04:56:00.290Z,23.0
2022-09-14T04:57:00.300Z,23.1
2022-09-14T04:58:00.516Z,23.3
2022-09-14T04:59:00.298Z,25.2
2022-09-14T05:00:00.323Z,28.2
2022-09-14T05:01:00.441Z,30.1
2022-09-14T05:02:00.397Z,31.4
2022-09-14T05:03:00.406Z,32.1
2022-09-14T05:04:00.316Z,32.7
2022-09-14T05:05:00.310Z,33.4
2022-09-14T05:06:00.312Z,34.1
2022-09-14T05:07:00.432Z,34.7
2022-09-14T05:08:00.345Z,35.4
2022-09-14T05:09:00.380Z,36.1
2022-09-14T05:10:00.377Z,36.7
2022-09-14T05:11:00.336Z,37.2
2022-09-14T05:12:00.328Z,37.4
2022-09-14T05:13:00.482Z,37.6
2022-09-14T05:14:00.354Z,38.0
2022-09-14T05:15:00.374Z,38.1
2022-09-14T05:16:00.360Z,38.0
2022-09-14T05:17:00.353Z,37.8
2022-09-14T05:18:00.366Z,37.9
2022-09-14T05:19:00.609Z,38.3
2022-09-14T05:20:00.300Z,38.5
2022-09-14T05:21:01.641Z,38.9
2022-09-14T05:22:00.309Z,39.2
2022-09-14T05:23:00.308Z,39.4
2022-09-14T05:24:00.309Z,39.5
2022-09-14T05:25:00.527Z,39.6
2022-09-14T05:26:00.304Z,39.4
2022-09-14T05:27:02.232Z,39.3
2022-09-14T05:28:00.553Z,39.4
2022-09-14T05:29:00.326Z,40.0
2022-09-14T05:30:00.312Z,40.5
2022-09-14T05:31:00.520Z,40.8
2022-09-14T05:32:00.294Z,40.9
2022-09-14T05:33:00.296Z,40.5
2022-09-14T05:34:00.302Z,40.4
2022-09-14T05:35:00.302Z,40.9
2022-09-14T05:36:00.290Z,41.2
2022-09-14T05:37:00.437Z,41.3
2022-09-14T05:38:00.312Z,41.8
2022-09-14T05:39:00.316Z,42.3
2022-09-14T05:40:00.462Z,42.4
2022-09-14T05:41:00.314Z,42.2
2022-09-14T05:42:00.301Z,42.0
2022-09-14T05:43:00.507Z,42.0
2022-09-14T05:44:00.460Z,42.4
2022-09-14T05:45:00.389Z,43.0
2022-09-14T05:46:00.315Z,43.4
2022-09-14T05:47:00.366Z,43.5
2022-09-14T05:48:00.322Z,43.3
2022-09-14T05:49:00.469Z,43.0
2022-09-14T05:50:00.316Z,43.0
2022-09-14T05:51:00.338Z,43.3
2022-09-14T05:52:00.370Z,43.5
2022-09-14T05:53:00.379Z,43.4
2022-09-14T05:54:00.385Z,43.4
2022-09-14T05:55:00.532Z,43.5
2022-09-14T05:56:00.314Z,43.6
2022-09-14T05:57:00.312Z,43.6
2022-09-14T05:58:00.301Z,43.6
2022-09-14T05:59:00.563Z,43.8
2022-09-14T06:00:00.314Z,43.9
2022-09-14T06:01:00.438Z,43.7
2022-09-14T06:02:00.353Z,43.4
2022-09-14T06:03:00.310Z,43.1
2022-09-14T06:04:00.307Z,43.4
2022-09-14T06:05:00.394Z,43.7
2022-09-14T06:06:00.313Z,43.9
2022-09-14T06:07:17.833Z,43.9
2022-09-14T06:08:00.298Z,43.6
2022-09-14T06:09:00.294Z,43.7
2022-09-14T06:10:00.307Z,43.9
2022-09-14T06:11:00.312Z,44.1
2022-09-14T06:12:00.296Z,44.5
2022-09-14T06:13:00.643Z,44.9
2022-09-14T06:14:00.509Z,45.0
2022-09-14T06:15:00.381Z,44.8
2022-09-14T06:16:00.329Z,44.6
2022-09-14T06:17:00.297Z,44.5
2022-09-14T06:18:00.375Z,44.7
2022-09-14T06:19:00.457Z,44.9
2022-09-14T06:20:04.376Z,44.9
2022-09-14T06:21:00.427Z,44.4
2022-09-14T06:22:00.283Z,44.7
2022-09-14T06:23:00.345Z,45.4
2022-09-14T06:24:00.308Z,46.1
2022-09-14T06:25:00.480Z,44.6
2022-09-14T06:26:00.317Z,42.1
2022-09-14T06:27:00.283Z,41.3
2022-09-14T06:28:00.301Z,41.2
2022-09-14T06:29:00.430Z,40.0
2022-09-14T06:30:00.318Z,38.6
2022-09-14T06:31:00.403Z,37.3
2022-09-14T06:32:00.301Z,36.3
2022-09-14T06:33:00.311Z,35.3
2022-09-14T06:34:00.301Z,34.0
2022-09-14T06:35:00.318Z,33.0
2022-09-14T06:36:00.349Z,32.2
2022-09-14T06:37:00.511Z,31.8
2022-09-14T06:38:00.318Z,31.5
2022-09-14T06:39:00.301Z,31.3
2022-09-14T06:40:00.405Z,31.6
2022-09-14T06:41:00.314Z,31.2
2022-09-14T06:42:00.294Z,31.0
2022-09-14T06:43:00.459Z,30.6
2022-09-14T06:44:00.377Z,31.7
2022-09-14T06:45:00.352Z,32.1
2022-09-14T06:46:00.315Z,32.0
2022-09-14T06:47:00.300Z,36.0
2022-09-14T06:48:00.317Z,37.2
2022-09-14T06:49:00.463Z,37.7
2022-09-14T06:50:00.314Z,39.0
2022-09-14T06:51:00.393Z,40.0
2022-09-14T06:52:00.295Z,41.3
2022-09-14T06:53:00.368Z,42.1
2022-09-14T06:54:00.318Z,42.6
2022-09-14T06:55:00.455Z,42.9
2022-09-14T06:56:00.397Z,43.3
2022-09-14T06:57:00.301Z,43.5
2022-09-14T06:58:00.305Z,43.7
2022-09-14T06:59:00.314Z,40.8
2022-09-14T07:00:00.445Z,41.2
2022-09-14T07:01:00.430Z,39.6
2022-09-14T07:02:00.320Z,39.8
2022-09-14T07:03:00.349Z,38.6
2022-09-14T07:04:00.302Z,39.0
2022-09-14T07:05:00.295Z,39.9
2022-09-14T07:06:00.313Z,41.3
2022-09-14T07:07:00.430Z,39.1
2022-09-14T07:08:00.299Z,39.1
2022-09-14T07:09:00.354Z,37.9
2022-09-14T07:10:00.308Z,36.9
2022-09-14T07:11:00.376Z,35.5
2022-09-14T07:12:00.342Z,34.6
2022-09-14T07:13:00.455Z,34.6
2022-09-14T07:14:00.319Z,34.2
2022-09-14T07:15:00.308Z,34.5
2022-09-14T07:16:00.409Z,36.5
2022-09-14T07:17:00.279Z,38.9
2022-09-14T07:18:00.303Z,40.2
2022-09-14T07:19:00.400Z,38.3
2022-09-14T07:20:00.299Z,38.0
2022-09-14T07:21:04.794Z,41.5
2022-09-14T07:22:00.321Z,41.0
2022-09-14T07:23:00.308Z,43.6
2022-09-14T07:24:00.310Z,44.8
2022-09-14T07:25:00.419Z,45.1
2022-09-14T07:26:00.317Z,44.4
2022-09-14T07:27:00.380Z,45.9
2022-09-14T07:28:00.303Z,43.1
2022-09-14T07:29:00.301Z,45.0
2022-09-14T07:30:00.294Z,46.7
2022-09-14T07:31:00.501Z,47.6
2022-09-14T07:32:00.290Z,48.1
2022-09-14T07:33:00.301Z,48.3
2022-09-14T07:34:00.320Z,48.0
2022-09-14T07:35:00.310Z,47.8
2022-09-14T07:36:00.305Z,48.8
2022-09-14T07:37:00.538Z,48.7
2022-09-14T07:38:00.291Z,45.4
2022-09-14T07:39:00.310Z,43.9
2022-09-14T07:40:00.432Z,41.4
2022-09-14T07:41:00.362Z,40.8
2022-09-14T07:42:00.327Z,42.2
2022-09-14T07:43:00.673Z,45.0
2022-09-14T07:44:00.663Z,43.5
2022-09-14T07:45:00.315Z,40.7
2022-09-14T07:46:00.503Z,41.1
2022-09-14T07:47:00.320Z,40.4
2022-09-14T07:48:00.324Z,39.2
2022-09-14T07:49:00.435Z,37.0
2022-09-14T07:50:00.312Z,35.7
2022-09-14T07:51:00.319Z,34.7
2022-09-14T07:52:00.294Z,34.0
2022-09-14T07:53:00.291Z,34.8
2022-09-14T07:54:00.287Z,33.7
2022-09-14T07:55:00.489Z,33.0
2022-09-14T07:56:00.312Z,32.5
2022-09-14T07:57:00.366Z,32.0
2022-09-14T07:58:00.308Z,31.7
2022-09-14T07:59:23.773Z,31.4
2022-09-14T08:00:00.318Z,31.5
2022-09-14T08:01:00.604Z,31.2
2022-09-14T08:02:00.468Z,31.0
2022-09-14T08:03:00.332Z,31.5
2022-09-14T08:04:04.699Z,31.2
2022-09-14T08:05:00.325Z,31.3
2022-09-14T08:06:00.305Z,31.9
2022-09-14T08:07:00.444Z,31.4
2022-09-14T08:08:00.311Z,31.1
2022-09-14T08:09:00.313Z,31.6
2022-09-14T08:10:00.341Z,31.2
2022-09-14T08:11:00.294Z,31.1
2022-09-14T08:12:00.359Z,31.2
2022-09-14T08:13:00.466Z,31.5
2022-09-14T08:14:00.367Z,31.7
2022-09-14T08:15:00.327Z,31.7
2022-09-14T08:16:00.363Z,35.0
2022-09-14T08:17:00.384Z,35.7
2022-09-14T08:18:00.322Z,38.0
2022-09-14T08:19:00.492Z,35.5
2022-09-14T08:20:00.282Z,34.9
2022-09-14T08:21:00.295Z,33.2
2022-09-14T08:22:00.290Z,32.1
2022-09-14T08:23:00.358Z,32.4
2022-09-14T08:24:00.301Z,31.6
2022-09-14T08:25:00.529Z,31.3
2022-09-14T08:26:00.311Z,31.1
2022-09-14T08:27:00.315Z,30.8
2022-09-14T08:28:00.323Z,30.6
2022-09-14T08:29:00.356Z,30.6
2022-09-14T08:30:00.386Z,31.6
2022-09-14T08:31:00.546Z,31.4
2022-09-14T08:32:00.373Z,31.0
2022-09-14T08:33:01.973Z,32.0
2022-09-14T08:34:00.323Z,34.1
2022-09-14T08:35:00.325Z,33.3
2022-09-14T08:36:00.290Z,36.7
2022-09-14T08:37:00.481Z,38.8
2022-09-14T08:38:00.316Z,39.4
2022-09-14T08:39:00.335Z,41.0
2022-09-14T08:40:00.453Z,42.0
2022-09-14T08:41:00.393Z,40.9
2022-09-14T08:42:00.317Z,42.4
2022-09-14T08:43:00.489Z,43.1
2022-09-14T08:44:00.324Z,43.7
2022-09-14T08:45:00.334Z,43.1
2022-09-14T08:46:00.483Z,40.2
2022-09-14T08:47:00.409Z,41.9
2022-09-14T08:48:00.375Z,42.4
2022-09-14T08:49:00.496Z,42.2
2022-09-14T08:50:00.376Z,38.7
2022-09-14T08:51:00.312Z,39.3
2022-09-14T08:52:00.305Z,41.3
2022-09-14T08:53:00.285Z,42.5
2022-09-14T08:54:00.316Z,42.9
2022-09-14T08:55:00.598Z,42.8
2022-09-14T08:56:00.292Z,40.5
2022-09-14T08:57:00.299Z,41.4
2022-09-14T08:58:00.302Z,42.5
2022-09-14T08:59:00.308Z,41.4
2022-09-14T09:00:00.297Z,40.9
2022-09-14T09:01:00.500Z,40.0
2022-09-14T09:02:00.385Z,38.9
2022-09-14T09:03:00.316Z,38.2
2022-09-14T09:04:00.470Z,36.5
2022-09-14T09:05:00.298Z,35.6
2022-09-14T09:06:00.306Z,35.1
2022-09-14T09:07:00.482Z,35.3
2022-09-14T09:08:00.357Z,35.6
2022-09-14T09:09:00.314Z,35.3
2022-09-14T09:10:00.373Z,35.9
2022-09-14T09:11:00.314Z,37.6
2022-09-14T09:12:00.313Z,38.4
2022-09-14T09:13:00.473Z,38.4
2022-09-14T09:14:00.345Z,38.0
2022-09-14T09:15:00.291Z,40.0
2022-09-14T09:16:00.364Z,40.8
2022-09-14T09:17:00.443Z,40.7
2022-09-14T09:18:00.303Z,38.6
2022-09-14T09:19:00.415Z,37.6
2022-09-14T09:20:00.301Z,36.8
2022-09-14T09:21:00.311Z,36.8
2022-09-14T09:22:00.302Z,39.6
2022-09-14T09:23:00.280Z,41.2
2022-09-14T09:24:00.298Z,39.8
2022-09-14T09:25:00.520Z,39.2
2022-09-14T09:26:00.304Z,38.7
2022-09-14T09:27:00.392Z,37.8
2022-09-14T09:28:00.302Z,37.5
2022-09-14T09:29:00.312Z,36.3
2022-09-14T09:30:00.344Z,35.6
2022-09-14T09:31:00.711Z,34.3
2022-09-14T09:32:00.584Z,33.4
2022-09-14T09:33:00.366Z,33.4
2022-09-14T09:34:00.334Z,36.8
2022-09-14T09:35:00.361Z,35.1
2022-09-14T09:36:00.301Z,34.2
2022-09-14T09:37:00.551Z,33.8
2022-09-14T09:38:00.314Z,33.4
2022-09-14T09:39:04.375Z,33.0
2022-09-14T09:40:00.457Z,33.1
2022-09-14T09:41:00.315Z,33.2
2022-09-14T09:42:00.290Z,34.5
2022-09-14T09:43:00.431Z,35.2
2022-09-14T09:44:00.299Z,36.3
2022-09-14T09:45:03.140Z,37.4
2022-09-14T09:46:00.327Z,37.2
2022-09-14T09:47:00.446Z,34.9
2022-09-14T09:48:00.314Z,34.1
2022-09-14T09:49:00.424Z,35.0
2022-09-14T09:50:00.319Z,35.7
2022-09-14T09:51:00.289Z,34.6
2022-09-14T09:52:00.297Z,34.1
2022-09-14T09:53:04.515Z,36.2
2022-09-14T09:54:00.318Z,37.1
2022-09-14T09:55:00.440Z,36.7
2022-09-14T09:56:00.281Z,37.6
2022-09-14T09:57:00.306Z,38.0
2022-09-14T09:58:00.313Z,38.0
2022-09-14T09:59:00.296Z,37.8
2022-09-14T10:00:00.289Z,37.6
2022-09-14T10:01:00.516Z,37.6
2022-09-14T10:02:00.402Z,37.5
2022-09-14T10:03:00.279Z,37.3
2022-09-14T10:04:00.314Z,36.9
2022-09-14T10:05:00.312Z,36.7
2022-09-14T10:06:00.290Z,36.5
2022-09-14T10:07:00.498Z,36.3
2022-09-14T10:08:00.372Z,36.0
2022-09-14T10:09:00.360Z,35.8
2022-09-14T10:10:00.289Z,35.7
2022-09-14T10:11:00.369Z,35.6
2022-09-14T10:12:00.384Z,35.4
2022-09-14T10:13:00.469Z,35.2
2022-09-14T10:14:00.347Z,35.0
2022-09-14T10:15:00.320Z,34.8
2022-09-14T10:16:00.338Z,34.5
2022-09-14T10:17:00.493Z,34.4
2022-09-14T10:18:00.399Z,34.3
2022-09-14T10:19:00.561Z,34.2
2022-09-14T10:20:00.304Z,34.0
2022-09-14T10:21:00.303Z,34.0
2022-09-14T10:22:00.313Z,33.9
2022-09-14T10:23:00.299Z,33.9
2022-09-14T10:24:00.299Z,33.7
2022-09-14T10:25:00.405Z,33.4
2022-09-14T10:26:00.289Z,33.3
2022-09-14T10:27:00.331Z,33.1
2022-09-14T10:28:00.296Z,32.9
2022-09-14T10:29:00.317Z,32.8
2022-09-14T10:30:00.301Z,32.7
2022-09-14T10:31:00.518Z,32.7
2022-09-14T10:32:00.287Z,32.6
2022-09-14T10:33:00.423Z,32.6
2022-09-14T10:34:00.301Z,32.5
2022-09-14T10:35:00.311Z,32.4
2022-09-14T10:36:00.289Z,32.2
2022-09-14T10:37:00.588Z,32.0
2022-09-14T10:38:00.290Z,32.0
2022-09-14T10:41:00.316Z,31.6
2022-09-14T10:42:00.305Z,31.5
2022-09-14T10:43:00.482Z,31.4
2022-09-14T10:44:00.304Z,31.4
2022-09-14T10:45:00.309Z,31.4
2022-09-14T10:46:00.366Z,31.3
2022-09-14T10:47:04.569Z,31.1
2022-09-14T10:48:00.473Z,30.9
2022-09-14T10:49:00.443Z,30.9
2022-09-14T10:50:00.299Z,30.7
2022-09-14T10:51:00.358Z,30.6
2022-09-14T10:52:00.280Z,30.6
2022-09-14T10:53:00.338Z,30.6
2022-09-14T10:54:00.282Z,30.6
2022-09-14T10:55:00.442Z,30.7
2022-09-14T10:56:00.305Z,30.8
2022-09-14T10:57:00.331Z,30.8
2022-09-14T10:58:00.295Z,30.8
2022-09-14T10:59:00.312Z,30.7
2022-09-14T11:00:00.309Z,30.8
2022-09-14T11:01:00.416Z,30.9
2022-09-14T11:02:00.417Z,30.9
2022-09-14T11:03:00.420Z,30.9
2022-09-14T11:04:00.472Z,30.9
2022-09-14T11:05:00.305Z,30.9
2022-09-14T11:06:00.303Z,30.8
2022-09-14T11:07:00.517Z,30.6
2022-09-14T11:08:00.319Z,30.6
2022-09-14T11:09:00.320Z,30.7
2022-09-14T11:10:00.307Z,30.6
2022-09-14T11:11:00.306Z,30.5
2022-09-14T11:12:00.294Z,30.4
2022-09-14T11:13:00.817Z,30.3
2022-09-14T11:14:00.297Z,30.3
2022-09-14T11:15:00.308Z,30.4
2022-09-14T11:16:00.395Z,30.5
2022-09-14T11:17:00.321Z,30.5
2022-09-14T11:18:00.349Z,30.6
2022-09-14T11:19:00.477Z,30.6
2022-09-14T11:20:00.542Z,30.6
2022-09-14T11:21:00.294Z,30.6
2022-09-14T11:22:00.351Z,30.6
2022-09-14T11:23:00.367Z,30.6
2022-09-14T11:24:00.312Z,30.6
2022-09-14T11:25:00.426Z,30.6
2022-09-14T11:26:00.310Z,30.7
2022-09-14T11:27:00.335Z,30.8
2022-09-14T11:28:00.293Z,30.8
2022-09-14T11:29:00.361Z,30.8
2022-09-14T11:30:00.304Z,30.8
2022-09-14T11:31:00.686Z,30.8
2022-09-14T11:32:19.933Z,30.7
2022-09-14T11:33:00.288Z,30.8
2022-09-14T11:34:00.315Z,30.8
2022-09-14T11:35:00.535Z,30.9
2022-09-14T11:36:00.288Z,30.8
2022-09-14T11:37:00.367Z,30.8
2022-09-14T11:38:00.287Z,30.8
2022-09-14T11:39:04.656Z,30.8
2022-09-14T11:40:00.408Z,30.7
2022-09-14T11:41:00.308Z,30.6
2022-09-14T11:42:00.353Z,30.5
2022-09-14T11:49:00.424Z,30.1
2022-09-14T11:50:00.358Z,30.1
2022-09-14T11:51:00.447Z,30.1
2022-09-14T11:52:00.293Z,30.1
2022-09-14T11:53:00.282Z,30.1
2022-09-14T11:54:00.370Z,30.1
2022-09-14T11:55:00.376Z,30.1
2022-09-14T11:56:00.337Z,30.0
2022-09-14T11:57:00.286Z,29.9
2022-09-14T11:58:00.284Z,29.8
2022-09-14T11:59:00.303Z,29.7
2022-09-14T12:00:00.281Z,29.8
2022-09-14T12:01:00.417Z,29.7
2022-09-14T12:02:00.282Z,29.6
2022-09-14T12:03:00.438Z,29.5
2022-09-14T12:04:00.382Z,29.6
2022-09-14T12:05:00.316Z,29.6
2022-09-14T12:06:00.422Z,29.7
2022-09-14T12:07:00.423Z,29.7
2022-09-14T12:08:00.281Z,29.7
2022-09-14T12:09:00.311Z,29.7
2022-09-14T12:10:00.285Z,29.7
2022-09-14T12:11:00.279Z,29.7
2022-09-14T12:12:00.295Z,29.7
2022-09-14T12:13:00.503Z,29.7
2022-09-14T12:14:00.290Z,29.7
2022-09-14T12:15:00.292Z,29.7
2022-09-14T12:16:00.324Z,29.6
2022-09-14T12:17:00.295Z,29.6
2022-09-14T12:18:00.281Z,29.6
2022-09-14T12:19:01.289Z,29.6
2022-09-14T12:20:00.326Z,29.6
2022-09-14T12:21:00.425Z,29.5
2022-09-14T12:22:00.365Z,29.4
2022-09-14T12:23:00.281Z,29.4
2022-09-14T12:24:00.378Z,29.4
2022-09-14T12:25:00.544Z,29.4
2022-09-14T12:26:00.327Z,29.5
2022-09-14T12:27:00.350Z,29.6
2022-09-14T12:28:00.284Z,29.6
2022-09-14T12:29:00.318Z,29.6
2022-09-14T12:30:00.335Z,29.7
2022-09-14T12:31:00.552Z,29.6
2022-09-14T12:32:00.384Z,29.6
2022-09-14T12:33:00.298Z,29.7
2022-09-14T12:34:00.283Z,29.7
2022-09-14T12:35:00.283Z,29.8
2022-09-14T12:36:00.503Z,29.8
2022-09-14T12:37:01.242Z,29.9
2022-09-14T12:38:00.279Z,29.9
2022-09-14T12:39:00.291Z,29.9
2022-09-14T12:40:00.432Z,29.9
2022-09-14T12:41:00.292Z,29.9
2022-09-14T12:42:00.284Z,29.8
2022-09-14T12:43:00.431Z,29.8
2022-09-14T12:44:00.289Z,29.8
2022-09-14T12:45:00.282Z,29.8
2022-09-14T12:46:00.347Z,29.8
2022-09-14T12:47:00.282Z,29.8
2022-09-14T12:48:00.279Z,29.9
2022-09-14T12:49:00.423Z,29.8
2022-09-14T12:50:00.275Z,29.7
2022-09-14T12:51:01.180Z,29.6
2022-09-14T12:52:00.304Z,29.6
2022-09-14T12:53:00.287Z,29.6
2022-09-14T12:54:00.280Z,29.5
2022-09-14T12:55:00.531Z,29.4
2022-09-14T12:56:00.344Z,29.3
2022-09-14T12:57:00.324Z,29.3
2022-09-14T12:58:00.340Z,29.3
2022-09-14T12:59:00.280Z,29.4
2022-09-14T13:00:00.431Z,29.4
2022-09-14T13:01:00.487Z,29.5
2022-09-14T13:02:00.440Z,29.6
2022-09-14T13:03:00.299Z,29.6
2022-09-14T13:04:00.333Z,29.6
2022-09-14T13:05:00.309Z,29.6
2022-09-14T13:06:00.347Z,29.6
2022-09-14T13:07:00.420Z,29.6
2022-09-14T13:08:00.386Z,29.6
2022-09-14T13:09:00.293Z,29.6
2022-09-14T13:10:00.370Z,29.5
2022-09-14T13:11:00.315Z,29.4
2022-09-14T13:12:00.309Z,29.3
2022-09-14T13:13:00.581Z,29.2
2022-09-14T13:14:00.282Z,29.2
2022-09-14T13:15:00.290Z,29.2
2022-09-14T13:16:00.321Z,29.2
2022-09-14T13:17:00.280Z,29.2
2022-09-14T13:18:00.303Z,29.3
2022-09-14T13:19:00.525Z,29.3
2022-09-14T13:20:00.278Z,29.3
2022-09-14T13:21:00.427Z,29.3
2022-09-14T13:22:00.298Z,29.2
2022-09-14T13:23:00.308Z,29.3
2022-09-14T13:24:00.309Z,29.3
2022-09-14T13:25:00.428Z,29.3
2022-09-14T13:26:00.321Z,29.3